createdAt,value
2022-12-05T00:01:35.931Z,20.45
2022-12-05T00:04:05.864Z,23.92
2022-12-05T00:06:35.468Z,19.90
2022-12-05T00:09:02.147Z,20.15
2022-12-05T00:11:33.212Z,21.55
2022-12-05T00:14:01.020Z,21.35
2022-12-05T00:16:30.654Z,22.00
2022-12-05T00:19:01.715Z,21.77
2022-12-05T00:21:30.337Z,22.90
2022-12-05T00:23:59.469Z,22.02
2022-12-05T00:26:26.866Z,21.38
2022-12-05T00:28:55.770Z,20.48
2022-12-05T00:31:23.806Z,21.52
2022-12-05T00:33:51.312Z,20.52
2022-12-05T00:36:21.441Z,20.80
2022-12-05T00:38:48.365Z,21.55
2022-12-05T00:41:18.925Z,22.08
2022-12-05T00:43:46.683Z,22.00
2022-12-05T00:46:20.318Z,19.75
2022-12-05T00:48:47.313Z,22.65
2022-12-05T00:51:19.815Z,21.50
2022-12-05T00:53:47.233Z,21.58
2022-12-05T00:56:17.096Z,21.05
2022-12-05T00:58:46.194Z,21.88
2022-12-05T01:01:14.622Z,21.83
2022-12-05T01:06:08.490Z,21.17
2022-12-05T01:08:35.684Z,21.17
2022-12-05T01:11:03.127Z,21.33
2022-12-05T01:13:33.464Z,22.35
2022-12-05T01:16:00.176Z,21.10
2022-12-05T01:18:27.402Z,21.65
2022-12-05T01:20:54.235Z,20.88
2022-12-05T01:23:21.548Z,21.65
2022-12-05T01:25:49.762Z,21.52
2022-12-05T01:28:17.023Z,21.15
2022-12-05T01:30:45.911Z,21.33
2022-12-05T01:33:12.553Z,21.27
2022-12-05T01:35:42.405Z,21.90
2022-12-05T01:38:11.451Z,21.65
2022-12-05T01:40:40.225Z,21.27
2022-12-05T01:43:14.454Z,21.98
2022-12-05T01:45:43.270Z,22.75
2022-12-05T01:48:19.420Z,21.83
2022-12-05T01:50:47.808Z,21.55
2022-12-05T01:53:15.483Z,21.13
2022-12-05T01:55:42.735Z,22.30
2022-12-05T01:58:10.238Z,22.17
2022-12-05T02:00:36.598Z,22.43
2022-12-05T02:03:08.346Z,21.77
2022-12-05T02:05:36.867Z,22.33
2022-12-05T02:10:36.341Z,22.77
2022-12-05T02:13:30.083Z,21.35
2022-12-05T02:16:02.661Z,19.98
2022-12-05T02:18:34.360Z,21.00
2022-12-05T02:21:41.180Z,23.08
2022-12-05T02:24:27.081Z,21.00
2022-12-05T02:27:07.920Z,23.27
2022-12-05T02:30:04.538Z,21.80
2022-12-05T02:32:45.937Z,20.58
2022-12-05T02:35:18.530Z,22.95
2022-12-05T02:38:15.495Z,20.80
2022-12-05T02:41:19.403Z,20.65
2022-12-05T02:44:02.147Z,21.67
2022-12-05T02:46:31.088Z,21.73
2022-12-05T02:49:05.870Z,20.85
2022-12-05T02:51:38.024Z,21.00
2022-12-05T02:54:10.161Z,20.73
2022-12-05T02:56:37.327Z,21.48
2022-12-05T02:59:04.305Z,21.35
2022-12-05T03:01:32.665Z,21.15
2022-12-05T03:04:03.005Z,22.48
2022-12-05T03:06:37.031Z,22.48
2022-12-05T03:09:14.592Z,20.98
2022-12-05T03:11:49.562Z,22.38
2022-12-05T03:14:22.747Z,21.52
2022-12-05T03:16:52.176Z,21.67
2022-12-05T03:19:27.084Z,22.40
2022-12-05T03:22:08.582Z,20.98
2022-12-05T03:24:37.619Z,22.15
2022-12-05T03:27:30.825Z,21.67
2022-12-05T03:30:05.816Z,21.58
2022-12-05T03:32:35.595Z,22.27
2022-12-05T03:35:11.116Z,22.33
2022-12-05T03:37:50.123Z,21.67
2022-12-05T03:40:32.273Z,20.38
2022-12-05T03:43:09.782Z,19.95
2022-12-05T03:45:47.932Z,20.93
2022-12-05T03:48:23.866Z,20.23
2022-12-05T03:50:53.796Z,20.77
2022-12-05T03:53:28.847Z,20.27
2022-12-05T03:56:06.375Z,21.17
2022-12-05T03:58:56.730Z,20.38
2022-12-05T04:01:28.138Z,19.35
2022-12-05T04:04:09.515Z,19.65
2022-12-05T04:06:40.052Z,19.95
2022-12-05T04:09:23.249Z,21.20
2022-12-05T04:12:02.263Z,21.48
2022-12-05T04:14:35.186Z,19.38
2022-12-05T04:17:06.722Z,20.35
2022-12-05T04:20:13.759Z,18.23
2022-12-05T04:22:41.248Z,19.48
2022-12-05T04:25:30.867Z,19.30
2022-12-05T04:28:21.909Z,18.88
2022-12-05T04:31:35.929Z,19.20
2022-12-05T04:34:08.444Z,19.05
2022-12-05T04:36:41.984Z,19.10
2022-12-05T04:39:18.029Z,19.20
2022-12-05T04:42:08.969Z,19.40
2022-12-05T04:44:42.632Z,18.23
2022-12-05T04:47:10.992Z,17.90
2022-12-05T04:49:40.869Z,19.65
2022-12-05T04:52:11.911Z,17.85
2022-12-05T04:54:57.310Z,18.23
2022-12-05T04:57:33.880Z,18.92
2022-12-05T05:00:00.746Z,18.02
2022-12-05T05:02:41.388Z,18.65
2022-12-05T05:05:14.161Z,18.90
2022-12-05T05:07:49.808Z,17.65
2022-12-05T05:10:34.230Z,17.35
2022-12-05T05:13:00.766Z,17.50
2022-12-05T05:15:27.073Z,17.40
2022-12-05T05:17:53.388Z,17.85
2022-12-05T05:20:27.045Z,18.02
2022-12-05T05:22:58.092Z,18.77
2022-12-05T05:25:25.723Z,18.48
2022-12-05T05:27:54.831Z,18.45
2022-12-05T05:30:24.410Z,18.88
2022-12-05T05:32:51.091Z,17.52
2022-12-05T05:35:17.577Z,17.58
2022-12-05T05:37:44.178Z,17.80
2022-12-05T05:40:12.338Z,17.33
2022-12-05T05:42:44.855Z,18.20
2022-12-05T05:45:12.991Z,16.77
2022-12-05T05:47:39.809Z,16.48
2022-12-05T05:50:06.973Z,17.13
2022-12-05T05:52:35.572Z,17.67
2022-12-05T05:55:02.999Z,17.40
2022-12-05T05:57:30.791Z,18.88
2022-12-05T05:59:57.410Z,19.55
2022-12-05T06:02:24.246Z,17.90
2022-12-05T06:04:51.143Z,16.70
2022-12-05T06:07:17.585Z,17.52
2022-12-05T06:09:43.903Z,18.30
2022-12-05T06:12:10.339Z,18.13
2022-12-05T06:14:36.647Z,19.00
2022-12-05T06:17:02.997Z,18.25
2022-12-05T06:19:31.739Z,18.98
2022-12-05T06:21:58.301Z,18.55
2022-12-05T06:24:24.690Z,18.40
2022-12-05T06:26:51.374Z,18.30
2022-12-05T06:29:21.608Z,19.25
2022-12-05T06:31:50.934Z,19.27
2022-12-05T06:34:17.474Z,18.73
2022-12-05T06:36:43.890Z,18.52
2022-12-05T06:39:10.381Z,17.58
2022-12-05T06:41:37.085Z,18.15
2022-12-05T06:44:03.608Z,17.02
2022-12-05T06:46:30.513Z,17.20
2022-12-05T06:48:57.792Z,17.23
2022-12-05T06:51:24.775Z,18.83
2022-12-05T06:53:51.139Z,19.45
2022-12-05T06:56:19.804Z,18.38
2022-12-05T06:58:53.835Z,17.70
2022-12-05T07:01:42.122Z,17.52
2022-12-05T07:04:25.762Z,17.92
2022-12-05T07:06:54.207Z,16.23
2022-12-05T07:11:51.360Z,15.35
2022-12-05T07:14:45.406Z,15.23
2022-12-05T07:17:05.197Z,15.85
2022-12-05T07:19:32.289Z,15.05
2022-12-05T07:21:58.824Z,15.30
2022-12-05T07:24:25.547Z,14.82
2022-12-05T07:26:52.048Z,18.05
2022-12-05T07:29:18.684Z,16.73
2022-12-05T07:31:45.514Z,16.83
2022-12-05T07:34:12.146Z,16.85
2022-12-05T07:36:38.749Z,16.52
2022-12-05T07:39:05.154Z,16.85
2022-12-05T07:41:33.462Z,15.25
2022-12-05T07:44:00.442Z,16.92
2022-12-05T07:46:28.577Z,16.63
2022-12-05T07:48:55.430Z,15.95
2022-12-05T07:51:22.483Z,15.10
2022-12-05T07:53:49.092Z,18.73
2022-12-05T07:56:17.481Z,17.20
2022-12-05T07:58:45.674Z,17.40
2022-12-05T08:01:16.308Z,17.55
2022-12-05T08:03:44.321Z,17.35
2022-12-05T08:06:18.196Z,16.63
2022-12-05T08:08:44.988Z,17.80
2022-12-05T08:11:17.172Z,17.15
2022-12-05T08:13:44.069Z,16.92
2022-12-05T08:16:14.600Z,18.17
2022-12-05T08:18:41.676Z,17.98
2022-12-05T08:21:12.111Z,18.00
2022-12-05T08:23:39.829Z,18.15
2022-12-05T08:26:13.785Z,17.60
2022-12-05T08:28:40.835Z,18.98
2022-12-05T08:31:10.866Z,18.20
2022-12-05T08:33:38.180Z,18.38
2022-12-05T08:36:06.912Z,17.52
2022-12-05T08:38:34.401Z,19.50
2022-12-05T08:41:02.196Z,16.97
2022-12-05T08:43:32.472Z,18.10
2022-12-05T08:45:59.940Z,15.98
2022-12-05T08:48:29.826Z,18.20
2022-12-05T08:50:57.269Z,17.50
2022-12-05T08:53:23.609Z,18.02
2022-12-05T08:55:50.139Z,17.25
2022-12-05T08:58:16.574Z,17.67
2022-12-05T09:00:43.544Z,17.80
2022-12-05T09:03:11.645Z,19.50
2022-12-05T09:05:38.511Z,18.88
2022-12-05T09:08:05.516Z,17.52
2022-12-05T09:10:32.098Z,16.25
2022-12-05T09:13:00.104Z,16.33
2022-12-05T09:15:26.740Z,18.33
2022-12-05T09:17:53.056Z,16.60
2022-12-05T09:20:19.939Z,17.45
2022-12-05T09:22:46.454Z,17.35
2022-12-05T09:25:12.813Z,16.92
2022-12-05T09:27:39.160Z,18.83
2022-12-05T09:30:06.289Z,16.85
2022-12-05T09:32:32.795Z,19.25
2022-12-05T09:34:59.586Z,18.80
2022-12-05T09:37:41.159Z,18.42
2022-12-05T09:40:15.182Z,17.65
2022-12-05T09:43:01.517Z,17.85
2022-12-05T09:45:35.644Z,16.30
2022-12-05T09:48:12.083Z,17.70
2022-12-05T09:50:44.472Z,18.00
2022-12-05T09:53:23.074Z,18.23
2022-12-05T09:55:53.335Z,20.08
2022-12-05T09:58:22.342Z,19.67
2022-12-05T10:00:54.267Z,18.52
2022-12-05T10:03:45.665Z,16.73
2022-12-05T10:06:29.060Z,18.65
2022-12-05T10:09:15.451Z,18.17
2022-12-05T10:12:19.704Z,19.25
2022-12-05T10:15:01.411Z,18.10
2022-12-05T10:17:37.079Z,17.10
2022-12-05T10:20:13.384Z,20.75
2022-12-05T10:23:18.795Z,20.45
2022-12-05T10:25:59.644Z,19.70
2022-12-05T10:28:34.970Z,20.10
2022-12-05T10:31:07.873Z,20.80
2022-12-05T10:33:43.485Z,21.70
2022-12-05T10:36:12.187Z,22.08
2022-12-05T10:38:39.590Z,23.17
2022-12-05T10:41:10.736Z,23.60
2022-12-05T10:43:41.217Z,25.33
2022-12-05T10:46:09.791Z,25.45
2022-12-05T10:48:41.500Z,25.08
2022-12-05T10:51:13.953Z,25.38
2022-12-05T10:53:49.638Z,27.85
2022-12-05T10:56:40.903Z,24.73
2022-12-05T10:59:09.326Z,23.98
2022-12-05T11:01:40.590Z,22.88
2022-12-05T11:04:26.182Z,27.48
2022-12-05T11:06:56.637Z,23.52
2022-12-05T11:09:26.033Z,28.45
2022-12-05T11:12:15.956Z,34.67
2022-12-05T11:14:58.099Z,25.08
2022-12-05T11:17:30.842Z,33.00
2022-12-05T11:19:57.265Z,23.77
2022-12-05T11:22:37.041Z,21.70
2022-12-05T11:25:30.039Z,26.15
2022-12-05T11:28:21.351Z,20.25
2022-12-05T11:30:58.609Z,22.95
2022-12-05T11:33:27.599Z,19.75
2022-12-05T11:36:04.283Z,19.80
2022-12-05T11:38:32.853Z,19.08
2022-12-05T11:41:47.848Z,29.83
2022-12-05T11:44:33.421Z,21.23
2022-12-05T11:47:25.324Z,30.92
2022-12-05T11:50:04.460Z,20.80
2022-12-05T11:52:57.888Z,20.40
2022-12-05T11:55:34.008Z,20.45
2022-12-05T11:58:29.029Z,19.40
2022-12-05T12:01:18.664Z,19.20
2022-12-05T12:03:58.194Z,19.52
2022-12-05T12:06:33.539Z,20.27
2022-12-05T12:09:23.405Z,19.58
2022-12-05T12:12:03.330Z,18.98
2022-12-05T12:14:55.474Z,19.23
2022-12-05T12:17:47.056Z,19.23
2022-12-05T12:20:41.688Z,16.92
2022-12-05T12:23:29.834Z,18.75
2022-12-05T12:26:16.078Z,18.10
2022-12-05T12:28:46.330Z,17.67
2022-12-05T12:31:12.885Z,18.27
2022-12-05T12:33:57.473Z,22.60
2022-12-05T12:36:42.281Z,21.70
2022-12-05T12:39:24.221Z,19.55
2022-12-05T12:42:09.339Z,17.35
2022-12-05T12:44:54.658Z,17.92
2022-12-05T12:47:40.103Z,17.23
2022-12-05T12:50:21.324Z,18.88
2022-12-05T12:53:03.939Z,16.05
2022-12-05T12:55:54.151Z,30.95
2022-12-05T12:58:42.198Z,27.52
2022-12-05T13:01:22.733Z,20.10
2022-12-05T13:04:02.401Z,18.23
2022-12-05T13:06:56.810Z,17.23
2022-12-05T13:09:32.445Z,17.33
2022-12-05T13:12:07.784Z,16.85
2022-12-05T13:14:37.396Z,15.30
2022-12-05T13:17:06.413Z,18.35
2022-12-05T13:19:44.139Z,15.68
2022-12-05T13:22:12.939Z,17.40
2022-12-05T13:24:39.894Z,15.88
2022-12-05T13:27:09.348Z,16.23
2022-12-05T13:29:42.846Z,16.98
2022-12-05T13:32:34.353Z,16.60
2022-12-05T13:35:07.118Z,17.10
2022-12-05T13:37:53.469Z,20.50
2022-12-05T13:40:45.892Z,17.85
2022-12-05T13:43:15.436Z,19.05
2022-12-05T13:45:53.680Z,16.30
2022-12-05T13:48:26.254Z,29.05
2022-12-05T13:51:13.835Z,20.13
2022-12-05T13:53:47.403Z,18.48
2022-12-05T13:56:13.719Z,16.60
2022-12-05T13:58:47.946Z,17.85
2022-12-05T14:01:26.890Z,17.00
2022-12-05T14:03:56.218Z,21.05
2022-12-05T14:06:34.801Z,24.35
2022-12-05T14:09:02.492Z,18.52
2022-12-05T14:11:29.015Z,19.20
2022-12-05T14:13:59.145Z,18.02
2022-12-05T14:16:30.371Z,17.80
2022-12-05T14:19:16.644Z,17.95
2022-12-05T14:21:53.918Z,20.30
2022-12-05T14:24:35.935Z,28.13
2022-12-05T14:27:35.839Z,73.85
2022-12-05T14:30:06.169Z,66.20
2022-12-05T14:32:36.516Z,84.50
2022-12-05T14:35:17.259Z,55.95
2022-12-05T14:37:53.081Z,40.10
2022-12-05T14:40:36.498Z,28.58
2022-12-05T14:43:15.437Z,21.60
2022-12-05T14:45:57.071Z,19.67
2022-12-05T14:48:40.108Z,19.33
2022-12-05T14:51:30.775Z,16.90
2022-12-05T14:56:29.786Z,15.98
2022-12-05T14:59:09.669Z,20.40
2022-12-05T15:01:49.778Z,20.25
2022-12-05T15:04:35.089Z,24.15
2022-12-05T15:07:09.616Z,19.73
2022-12-05T15:09:37.611Z,19.85
2022-12-05T15:12:11.165Z,19.45
2022-12-05T15:14:45.962Z,17.98
2022-12-05T15:17:18.430Z,16.80
2022-12-05T15:19:51.734Z,15.35
2022-12-05T15:22:21.424Z,16.13
2022-12-05T15:24:47.937Z,30.30
2022-12-05T15:27:15.528Z,26.15
2022-12-05T15:29:42.350Z,26.13
2022-12-05T15:32:11.742Z,26.58
2022-12-05T15:34:45.406Z,23.10
2022-12-05T15:37:59.817Z,19.90
2022-12-05T15:40:26.427Z,17.73
2022-12-05T15:42:57.522Z,18.98
2022-12-05T15:45:27.090Z,18.48
2022-12-05T15:48:11.206Z,17.38
2022-12-05T15:50:51.298Z,17.73
2022-12-05T15:53:43.927Z,18.27
2022-12-05T15:56:40.818Z,18.85
2022-12-05T15:59:35.138Z,18.08
2022-12-05T16:02:26.579Z,17.92
2022-12-05T16:04:56.650Z,18.35
2022-12-05T16:07:28.702Z,21.15
2022-12-05T16:10:00.719Z,23.25
2022-12-05T16:12:38.344Z,23.42
2022-12-05T16:15:13.815Z,23.48
2022-12-05T16:17:47.186Z,23.25
2022-12-05T16:20:16.520Z,34.60
2022-12-05T16:22:53.967Z,22.77
2022-12-05T16:25:29.735Z,19.93
2022-12-05T16:28:16.866Z,20.73
2022-12-05T16:30:58.210Z,26.05
2022-12-05T16:33:26.297Z,26.88
2022-12-05T16:35:53.224Z,22.10
2022-12-05T16:38:21.357Z,23.55
2022-12-05T16:40:52.915Z,19.08
2022-12-05T16:43:22.790Z,23.05
2022-12-05T16:45:50.685Z,18.83
2022-12-05T16:48:22.119Z,30.90
2022-12-05T16:50:50.916Z,24.55
2022-12-05T16:53:29.811Z,29.85
2022-12-05T16:55:58.926Z,23.80
2022-12-05T16:58:27.553Z,38.25
2022-12-05T17:01:06.657Z,33.67
2022-12-05T17:03:35.474Z,45.75
2022-12-05T17:06:03.029Z,31.20
2022-12-05T17:08:29.615Z,25.25
2022-12-05T17:10:59.032Z,26.55
2022-12-05T17:13:25.459Z,20.13
2022-12-05T17:15:52.354Z,27.80
2022-12-05T17:18:21.866Z,18.35
2022-12-05T17:20:54.263Z,18.23
2022-12-05T17:23:20.868Z,17.70
2022-12-05T17:25:58.560Z,15.57
2022-12-05T17:28:25.890Z,16.70
2022-12-05T17:30:52.935Z,19.70
2022-12-05T17:33:19.684Z,15.52
2022-12-05T17:35:46.849Z,16.63
2022-12-05T17:38:13.323Z,15.38
2022-12-05T17:40:40.400Z,14.45
2022-12-05T17:43:08.134Z,15.02
2022-12-05T17:45:34.442Z,15.57
2022-12-05T17:48:00.992Z,16.20
2022-12-05T17:50:29.779Z,14.93
2022-12-05T17:53:01.620Z,13.93
2022-12-05T17:55:32.204Z,14.50
2022-12-05T17:57:58.697Z,14.15
2022-12-05T18:00:25.324Z,14.82
2022-12-05T18:02:52.785Z,14.82
2022-12-05T18:05:19.521Z,13.97
2022-12-05T18:07:46.367Z,16.80
2022-12-05T18:10:16.368Z,22.38
2022-12-05T18:12:42.811Z,14.98
2022-12-05T18:15:12.108Z,13.73
2022-12-05T18:17:39.002Z,14.95
2022-12-05T18:20:08.478Z,14.95
2022-12-05T18:22:35.354Z,16.63
2022-12-05T18:25:03.401Z,19.02
2022-12-05T18:27:32.674Z,15.77
2022-12-05T18:30:00.039Z,13.82
2022-12-05T18:32:26.496Z,15.95
2022-12-05T18:34:53.178Z,16.25
2022-12-05T18:37:19.760Z,13.55
2022-12-05T18:39:46.443Z,14.27
2022-12-05T18:42:15.243Z,14.82
2022-12-05T18:44:43.613Z,15.23
2022-12-05T18:47:10.082Z,18.35
2022-12-05T18:49:36.597Z,16.58
2022-12-05T18:52:03.239Z,15.30
2022-12-05T18:54:30.675Z,20.02
2022-12-05T18:56:58.761Z,17.08
2022-12-05T18:59:28.524Z,16.85
2022-12-05T19:01:55.657Z,16.17
2022-12-05T19:04:22.350Z,20.40
2022-12-05T19:06:50.407Z,17.10
2022-12-05T19:09:18.586Z,15.07
2022-12-05T19:11:47.973Z,15.80
2022-12-05T19:14:16.696Z,20.13
2022-12-05T19:16:43.298Z,21.17
2022-12-05T19:19:14.325Z,20.98
2022-12-05T19:21:42.890Z,18.92
2022-12-05T19:24:12.116Z,21.45
2022-12-05T19:26:38.904Z,26.75
2022-12-05T19:29:05.962Z,27.00
2022-12-05T19:31:33.411Z,22.90
2022-12-05T19:34:02.042Z,19.47
2022-12-05T19:38:56.640Z,16.57
2022-12-05T19:41:30.256Z,17.30
2022-12-05T19:44:00.234Z,18.65
2022-12-05T19:46:29.747Z,16.88
2022-12-05T19:48:57.972Z,18.02
2022-12-05T19:51:26.986Z,17.60
2022-12-05T19:53:53.765Z,16.17
2022-12-05T19:56:25.669Z,15.55
2022-12-05T19:58:55.466Z,15.45
2022-12-05T20:01:30.485Z,18.25
2022-12-05T20:04:00.288Z,15.63
2022-12-05T20:06:34.713Z,15.95
2022-12-05T20:09:01.705Z,15.88
2022-12-05T20:11:31.837Z,15.07
2022-12-05T20:14:01.926Z,17.27
2022-12-05T20:16:29.216Z,18.00
2022-12-05T20:19:00.524Z,13.90
2022-12-05T20:21:29.933Z,16.45
2022-12-05T20:23:58.081Z,14.43
2022-12-05T20:26:28.744Z,15.30
2022-12-05T20:28:58.900Z,15.50
2022-12-05T20:31:30.232Z,16.50
2022-12-05T20:33:56.938Z,18.13
2022-12-05T20:36:26.910Z,18.48
2022-12-05T20:38:58.521Z,20.85
2022-12-05T20:41:25.146Z,22.30
2022-12-05T20:43:58.160Z,17.27
2022-12-05T20:46:25.222Z,19.20
2022-12-05T20:48:53.622Z,18.25
2022-12-05T20:51:28.206Z,18.02
2022-12-05T20:53:55.136Z,16.23
2022-12-05T20:56:25.275Z,16.52
2022-12-05T20:58:54.422Z,15.77
2022-12-05T21:01:22.534Z,16.33
2022-12-05T21:03:50.838Z,15.25
2022-12-05T21:06:26.119Z,15.20
2022-12-05T21:08:54.427Z,15.18
2022-12-05T21:11:22.257Z,22.38
2022-12-05T21:13:48.970Z,21.33
2022-12-05T21:16:18.253Z,26.38
2022-12-05T21:18:45.987Z,24.75
2022-12-05T21:21:15.159Z,20.38
2022-12-05T21:23:43.112Z,19.63
2022-12-05T21:26:13.219Z,16.45
2022-12-05T21:28:42.168Z,15.82
2022-12-05T21:31:12.518Z,16.83
2022-12-05T21:33:40.506Z,15.95
2022-12-05T21:36:07.972Z,16.92
2022-12-05T21:38:34.830Z,15.63
2022-12-05T21:41:04.397Z,15.57
2022-12-05T21:43:31.204Z,16.23
2022-12-05T21:45:57.984Z,15.23
2022-12-05T21:48:25.450Z,14.52
2022-12-05T21:50:52.327Z,13.93
2022-12-05T21:53:20.132Z,13.63
2022-12-05T21:55:47.083Z,12.73
2022-12-05T21:58:14.018Z,12.73
2022-12-05T22:00:40.616Z,12.43
2022-12-05T22:03:07.668Z,13.93
2022-12-05T22:05:34.468Z,13.23
2022-12-05T22:08:05.984Z,11.73
2022-12-05T22:10:34.461Z,13.40
2022-12-05T22:13:00.829Z,13.02
2022-12-05T22:15:27.520Z,11.82
2022-12-05T22:17:54.153Z,16.10
2022-12-05T22:20:20.484Z,19.90
2022-12-05T22:22:46.834Z,28.85
2022-12-05T22:25:13.171Z,19.52
2022-12-05T22:27:39.681Z,20.23
2022-12-05T22:30:07.005Z,15.05
2022-12-05T22:32:34.922Z,14.15
2022-12-05T22:35:04.266Z,12.38
2022-12-05T22:37:31.180Z,14.60
2022-12-05T22:39:58.059Z,13.15
2022-12-05T22:42:26.142Z,13.52
2022-12-05T22:44:52.475Z,13.57
2022-12-05T22:47:18.934Z,12.88
2022-12-05T22:49:46.789Z,13.30
2022-12-05T22:52:15.317Z,13.80
2022-12-05T22:57:08.408Z,11.35
2022-12-05T22:59:35.006Z,12.18
2022-12-05T23:02:01.708Z,12.55
2022-12-05T23:04:28.430Z,12.05
2022-12-05T23:06:54.937Z,12.55
2022-12-05T23:09:21.396Z,13.90
2022-12-05T23:11:51.516Z,13.13
2022-12-05T23:14:18.160Z,12.90
2022-12-05T23:16:44.567Z,11.55
2022-12-05T23:19:11.218Z,12.05
2022-12-05T23:21:39.539Z,11.60
2022-12-05T23:24:10.170Z,12.68
2022-12-05T23:26:40.343Z,13.48
2022-12-05T23:29:07.311Z,12.13
2022-12-05T23:31:34.094Z,12.93
2022-12-05T23:34:03.449Z,12.73
2022-12-05T23:36:32.418Z,12.43
2022-12-05T23:38:58.816Z,12.80
2022-12-05T23:41:26.229Z,12.15
2022-12-05T23:43:53.010Z,19.45
2022-12-05T23:46:22.768Z,13.85
2022-12-05T23:48:49.758Z,12.40
2022-12-05T23:51:22.114Z,16.02
2022-12-05T23:53:53.042Z,13.90
2022-12-05T23:56:22.644Z,14.25
2022-12-05T23:58:49.149Z,16.85
